sensor_id;sensor_type;location;lat;lon;timestamp;temperature;humidity
9965;DHT22;5023;53.554;9.964;2022-11-20T00:02:22;3.10;99.90
9965;DHT22;5023;53.554;9.964;2022-11-20T00:07:25;3.10;99.90
9965;DHT22;5023;53.554;9.964;2022-11-20T00:12:29;3.00;99.90
9965;DHT22;5023;53.554;9.964;2022-11-20T00:17:32;2.90;99.90
9965;DHT22;5023;53.554;9.964;2022-11-20T00:22:35;3.00;99.90
9965;DHT22;5023;53.554;9.964;2022-11-20T00:27:40;3.00;99.90
9965;DHT22;5023;53.554;9.964;2022-11-20T00:32:42;3.00;99.90
9965;DHT22;5023;53.554;9.964;2022-11-20T00:37:49;3.00;99.90
9965;DHT22;5023;53.554;9.964;2022-11-20T00:42:57;3.00;99.90
9965;DHT22;5023;53.554;9.964;2022-11-20T00:47:59;3.00;99.90
9965;DHT22;5023;53.554;9.964;2022-11-20T00:53:01;3.00;99.90
9965;DHT22;5023;53.554;9.964;2022-11-20T00:58:06;3.00;99.90
9965;DHT22;5023;53.554;9.964;2022-11-20T01:03:12;3.00;99.90
9965;DHT22;5023;53.554;9.964;2022-11-20T01:08:15;3.00;99.90
9965;DHT22;5023;53.554;9.964;2022-11-20T01:13:18;2.90;99.90
9965;DHT22;5023;53.554;9.964;2022-11-20T01:18:40;2.90;99.90
9965;DHT22;5023;53.554;9.964;2022-11-20T01:23:45;2.90;99.90
9965;DHT22;5023;53.554;9.964;2022-11-20T01:28:51;2.90;99.90
9965;DHT22;5023;53.554;9.964;2022-11-20T01:34:01;2.80;99.90
9965;DHT22;5023;53.554;9.964;2022-11-20T01:39:07;2.90;99.90
9965;DHT22;5023;53.554;9.964;2022-11-20T01:44:22;2.90;99.90
9965;DHT22;5023;53.554;9.964;2022-11-20T01:49:26;3.00;99.90
9965;DHT22;5023;53.554;9.964;2022-11-20T01:54:34;3.00;99.90
9965;DHT22;5023;53.554;9.964;2022-11-20T01:59:42;2.90;99.90
9965;DHT22;5023;53.554;9.964;2022-11-20T02:04:46;2.90;99.90
9965;DHT22;5023;53.554;9.964;2022-11-20T02:10:12;2.90;99.90
9965;DHT22;5023;53.554;9.964;2022-11-20T02:15:24;2.80;99.90
9965;DHT22;5023;53.554;9.964;2022-11-20T02:20:27;2.80;99.90
9965;DHT22;5023;53.554;9.964;2022-11-20T02:25:33;2.80;99.90
9965;DHT22;5023;53.554;9.964;2022-11-20T02:30:37;2.90;99.90
9965;DHT22;5023;53.554;9.964;2022-11-20T02:35:43;2.90;99.90
9965;DHT22;5023;53.554;9.964;2022-11-20T02:40:47;2.90;99.90
9965;DHT22;5023;53.554;9.964;2022-11-20T02:45:49;2.90;99.90
9965;DHT22;5023;53.554;9.964;2022-11-20T02:50:52;2.90;99.90
9965;DHT22;5023;53.554;9.964;2022-11-20T02:56:03;3.00;99.90
9965;DHT22;5023;53.554;9.964;2022-11-20T03:01:08;3.00;99.90
9965;DHT22;5023;53.554;9.964;2022-11-20T03:06:11;3.00;99.90
9965;DHT22;5023;53.554;9.964;2022-11-20T03:11:16;2.90;99.90
9965;DHT22;5023;53.554;9.964;2022-11-20T03:16:20;2.80;99.90
9965;DHT22;5023;53.554;9.964;2022-11-20T03:21:23;2.80;99.90
9965;DHT22;5023;53.554;9.964;2022-11-20T03:26:28;2.80;99.90
9965;DHT22;5023;53.554;9.964;2022-11-20T03:31:32;2.80;99.90
9965;DHT22;5023;53.554;9.964;2022-11-20T03:36:37;2.90;99.90
9965;DHT22;5023;53.554;9.964;2022-11-20T03:46:57;2.90;99.90
9965;DHT22;5023;53.554;9.964;2022-11-20T03:51:59;2.90;99.90
9965;DHT22;5023;53.554;9.964;2022-11-20T03:57:06;2.90;99.90
9965;DHT22;5023;53.554;9.964;2022-11-20T04:02:08;2.90;99.90
9965;DHT22;5023;53.554;9.964;2022-11-20T04:07:11;2.90;99.90
9965;DHT22;5023;53.554;9.964;2022-11-20T04:12:14;2.80;99.90
9965;DHT22;5023;53.554;9.964;2022-11-20T04:17:17;2.80;99.90
9965;DHT22;5023;53.554;9.964;2022-11-20T04:22:19;2.80;99.90
9965;DHT22;5023;53.554;9.964;2022-11-20T04:27:23;2.70;99.90
9965;DHT22;5023;53.554;9.964;2022-11-20T04:32:26;2.70;99.90
9965;DHT22;5023;53.554;9.964;2022-11-20T04:37:31;2.80;99.90
9965;DHT22;5023;53.554;9.964;2022-11-20T04:42:37;2.80;99.90
9965;DHT22;5023;53.554;9.964;2022-11-20T04:47:40;2.80;99.90
9965;DHT22;5023;53.554;9.964;2022-11-20T04:52:45;2.80;99.90
9965;DHT22;5023;53.554;9.964;2022-11-20T04:57:52;2.80;99.90
9965;DHT22;5023;53.554;9.964;2022-11-20T05:02:55;2.70;99.90
9965;DHT22;5023;53.554;9.964;2022-11-20T05:08:07;2.70;99.90
9965;DHT22;5023;53.554;9.964;2022-11-20T05:13:13;2.80;99.90
9965;DHT22;5023;53.554;9.964;2022-11-20T05:18:20;2.80;99.90
9965;DHT22;5023;53.554;9.964;2022-11-20T05:23:26;2.80;99.90
9965;DHT22;5023;53.554;9.964;2022-11-20T05:28:34;2.80;99.90
9965;DHT22;5023;53.554;9.964;2022-11-20T05:33:39;2.70;99.90
9965;DHT22;5023;53.554;9.964;2022-11-20T05:38:47;2.70;99.90
9965;DHT22;5023;53.554;9.964;2022-11-20T05:43:51;2.60;99.90
9965;DHT22;5023;53.554;9.964;2022-11-20T05:48:53;2.60;99.90
9965;DHT22;5023;53.554;9.964;2022-11-20T05:53:56;2.50;99.90
9965;DHT22;5023;53.554;9.964;2022-11-20T05:59:08;2.50;99.90
9965;DHT22;5023;53.554;9.964;2022-11-20T06:04:11;2.50;99.90
9965;DHT22;5023;53.554;9.964;2022-11-20T06:09:16;2.40;99.90
9965;DHT22;5023;53.554;9.964;2022-11-20T06:14:29;2.40;99.90
9965;DHT22;5023;53.554;9.964;2022-11-20T06:19:33;2.40;99.90
9965;DHT22;5023;53.554;9.964;2022-11-20T06:24:36;2.40;99.90
9965;DHT22;5023;53.554;9.964;2022-11-20T06:29:39;2.30;99.90
9965;DHT22;5023;53.554;9.964;2022-11-20T06:34:42;2.40;99.90
9965;DHT22;5023;53.554;9.964;2022-11-20T06:39:44;2.40;99.90
9965;DHT22;5023;53.554;9.964;2022-11-20T06:44:48;2.40;99.90
9965;DHT22;5023;53.554;9.964;2022-11-20T06:49:50;2.50;99.90
9965;DHT22;5023;53.554;9.964;2022-11-20T06:54:54;2.40;99.90
9965;DHT22;5023;53.554;9.964;2022-11-20T06:59:57;2.50;99.90
9965;DHT22;5023;53.554;9.964;2022-11-20T07:05:00;2.50;99.90
9965;DHT22;5023;53.554;9.964;2022-11-20T07:10:02;2.40;99.90
9965;DHT22;5023;53.554;9.964;2022-11-20T07:15:07;2.40;99.90
9965;DHT22;5023;53.554;9.964;2022-11-20T07:20:10;2.40;99.90
9965;DHT22;5023;53.554;9.964;2022-11-20T07:25:15;2.30;99.90
9965;DHT22;5023;53.554;9.964;2022-11-20T07:30:19;2.30;99.90
9965;DHT22;5023;53.554;9.964;2022-11-20T07:35:22;2.30;99.90
9965;DHT22;5023;53.554;9.964;2022-11-20T07:40:25;2.30;99.90
9965;DHT22;5023;53.554;9.964;2022-11-20T07:45:32;2.30;99.90
9965;DHT22;5023;53.554;9.964;2022-11-20T07:50:34;2.40;99.90
9965;DHT22;5023;53.554;9.964;2022-11-20T07:55:39;2.40;99.90
9965;DHT22;5023;53.554;9.964;2022-11-20T08:00:47;2.50;99.90
9965;DHT22;5023;53.554;9.964;2022-11-20T08:05:50;2.60;99.90
9965;DHT22;5023;53.554;9.964;2022-11-20T08:10:53;2.40;99.90
9965;DHT22;5023;53.554;9.964;2022-11-20T08:16:20;2.40;99.90
9965;DHT22;5023;53.554;9.964;2022-11-20T08:21:23;2.50;99.90
9965;DHT22;5023;53.554;9.964;2022-11-20T08:26:27;2.60;99.90
9965;DHT22;5023;53.554;9.964;2022-11-20T08:31:34;2.60;99.90
9965;DHT22;5023;53.554;9.964;2022-11-20T08:36:39;2.70;99.90
9965;DHT22;5023;53.554;9.964;2022-11-20T08:41:45;2.70;99.90
9965;DHT22;5023;53.554;9.964;2022-11-20T08:46:49;2.60;99.90
9965;DHT22;5023;53.554;9.964;2022-11-20T08:51:52;2.60;99.90
9965;DHT22;5023;53.554;9.964;2022-11-20T08:56:59;2.60;99.90
9965;DHT22;5023;53.554;9.964;2022-11-20T09:02:03;2.70;99.90
9965;DHT22;5023;53.554;9.964;2022-11-20T09:07:07;2.70;99.90
9965;DHT22;5023;53.554;9.964;2022-11-20T09:12:09;2.80;99.90
9965;DHT22;5023;53.554;9.964;2022-11-20T09:17:20;2.80;99.90
9965;DHT22;5023;53.554;9.964;2022-11-20T09:22:29;2.80;99.90
9965;DHT22;5023;53.554;9.964;2022-11-20T09:27:33;2.80;99.90
9965;DHT22;5023;53.554;9.964;2022-11-20T09:32:44;2.80;99.90
9965;DHT22;5023;53.554;9.964;2022-11-20T09:37:47;2.70;99.90
9965;DHT22;5023;53.554;9.964;2022-11-20T09:42:55;2.70;99.90
9965;DHT22;5023;53.554;9.964;2022-11-20T09:48:12;2.70;99.90
9965;DHT22;5023;53.554;9.964;2022-11-20T09:53:25;2.80;99.90
9965;DHT22;5023;53.554;9.964;2022-11-20T09:58:38;2.80;99.90
9965;DHT22;5023;53.554;9.964;2022-11-20T10:03:52;2.80;99.90
9965;DHT22;5023;53.554;9.964;2022-11-20T10:09:02;2.80;99.90
9965;DHT22;5023;53.554;9.964;2022-11-20T10:14:22;2.90;99.90
9965;DHT22;5023;53.554;9.964;2022-11-20T10:19:44;3.00;99.90
9965;DHT22;5023;53.554;9.964;2022-11-20T10:24:56;3.00;99.90
9965;DHT22;5023;53.554;9.964;2022-11-20T10:30:02;3.00;99.90
9965;DHT22;5023;53.554;9.964;2022-11-20T10:35:16;3.20;99.90
9965;DHT22;5023;53.554;9.964;2022-11-20T10:40:29;3.20;99.90
9965;DHT22;5023;53.554;9.964;2022-11-20T10:45:45;3.20;99.90
9965;DHT22;5023;53.554;9.964;2022-11-20T10:51:10;3.30;99.90
9965;DHT22;5023;53.554;9.964;2022-11-20T10:56:19;3.20;99.90
9965;DHT22;5023;53.554;9.964;2022-11-20T11:01:22;3.10;99.90
9965;DHT22;5023;53.554;9.964;2022-11-20T11:06:34;3.30;99.90
9965;DHT22;5023;53.554;9.964;2022-11-20T11:11:38;3.40;99.90
9965;DHT22;5023;53.554;9.964;2022-11-20T11:16:50;3.50;99.90
9965;DHT22;5023;53.554;9.964;2022-11-20T11:21:55;3.50;99.90
9965;DHT22;5023;53.554;9.964;2022-11-20T11:27:00;3.40;99.90
9965;DHT22;5023;53.554;9.964;2022-11-20T11:32:06;3.30;99.90
9965;DHT22;5023;53.554;9.964;2022-11-20T11:37:17;3.50;99.90
9965;DHT22;5023;53.554;9.964;2022-11-20T11:42:24;3.40;99.90
9965;DHT22;5023;53.554;9.964;2022-11-20T11:47:31;3.50;99.90
9965;DHT22;5023;53.554;9.964;2022-11-20T11:52:41;3.40;99.90
9965;DHT22;5023;53.554;9.964;2022-11-20T11:57:49;3.30;99.90
9965;DHT22;5023;53.554;9.964;2022-11-20T12:03:05;3.40;99.90
9965;DHT22;5023;53.554;9.964;2022-11-20T12:08:17;3.50;99.90
9965;DHT22;5023;53.554;9.964;2022-11-20T12:13:31;3.40;99.90
9965;DHT22;5023;53.554;9.964;2022-11-20T12:18:39;3.50;99.90
9965;DHT22;5023;53.554;9.964;2022-11-20T12:23:53;3.50;99.90
9965;DHT22;5023;53.554;9.964;2022-11-20T12:29:05;3.50;99.90
9965;DHT22;5023;53.554;9.964;2022-11-20T12:34:21;3.50;99.90
9965;DHT22;5023;53.554;9.964;2022-11-20T12:39:35;3.30;99.90
9965;DHT22;5023;53.554;9.964;2022-11-20T12:44:52;3.30;99.90
9965;DHT22;5023;53.554;9.964;2022-11-20T12:50:21;3.30;99.90
9965;DHT22;5023;53.554;9.964;2022-11-20T12:55:42;3.20;99.90
9965;DHT22;5023;53.554;9.964;2022-11-20T13:01:20;3.40;99.90
9965;DHT22;5023;53.554;9.964;2022-11-20T13:06:45;3.40;99.90
9965;DHT22;5023;53.554;9.964;2022-11-20T13:11:57;3.50;99.90
9965;DHT22;5023;53.554;9.964;2022-11-20T13:17:07;3.50;99.90
9965;DHT22;5023;53.554;9.964;2022-11-20T13:22:24;3.60;99.90
9965;DHT22;5023;53.554;9.964;2022-11-20T13:27:30;3.60;99.90
9965;DHT22;5023;53.554;9.964;2022-11-20T13:32:51;3.70;99.90
9965;DHT22;5023;53.554;9.964;2022-11-20T13:38:05;3.80;99.90
9965;DHT22;5023;53.554;9.964;2022-11-20T13:43:19;3.60;99.90
9965;DHT22;5023;53.554;9.964;2022-11-20T13:48:30;3.60;99.90
9965;DHT22;5023;53.554;9.964;2022-11-20T13:54:00;3.70;99.90
9965;DHT22;5023;53.554;9.964;2022-11-20T13:59:13;3.80;99.90
9965;DHT22;5023;53.554;9.964;2022-11-20T14:04:27;3.80;99.90
9965;DHT22;5023;53.554;9.964;2022-11-20T14:09:32;3.90;99.90
9965;DHT22;5023;53.554;9.964;2022-11-20T14:14:47;3.90;99.90
9965;DHT22;5023;53.554;9.964;2022-11-20T14:19:53;4.00;99.90
9965;DHT22;5023;53.554;9.964;2022-11-20T14:25:06;3.90;99.90
9965;DHT22;5023;53.554;9.964;2022-11-20T14:30:16;4.00;99.90
9965;DHT22;5023;53.554;9.964;2022-11-20T14:35:34;4.00;99.90
9965;DHT22;5023;53.554;9.964;2022-11-20T14:40:37;4.00;99.90
9965;DHT22;5023;53.554;9.964;2022-11-20T14:45:44;4.00;99.90
9965;DHT22;5023;53.554;9.964;2022-11-20T14:50:50;3.80;99.90
9965;DHT22;5023;53.554;9.964;2022-11-20T14:56:00;3.60;99.90
9965;DHT22;5023;53.554;9.964;2022-11-20T15:01:12;3.60;99.90
9965;DHT22;5023;53.554;9.964;2022-11-20T15:06:26;3.60;99.90
9965;DHT22;5023;53.554;9.964;2022-11-20T15:11:30;3.50;99.90
9965;DHT22;5023;53.554;9.964;2022-11-20T15:16:34;3.50;99.90
9965;DHT22;5023;53.554;9.964;2022-11-20T15:21:36;3.50;99.90
9965;DHT22;5023;53.554;9.964;2022-11-20T15:26:39;3.60;99.90
9965;DHT22;5023;53.554;9.964;2022-11-20T15:31:47;3.60;99.90
9965;DHT22;5023;53.554;9.964;2022-11-20T15:36:50;3.60;99.90
9965;DHT22;5023;53.554;9.964;2022-11-20T15:41:53;3.60;99.90
9965;DHT22;5023;53.554;9.964;2022-11-20T15:46:58;3.50;99.90
9965;DHT22;5023;53.554;9.964;2022-11-20T15:52:00;3.60;99.90
9965;DHT22;5023;53.554;9.964;2022-11-20T15:57:03;3.60;99.90
9965;DHT22;5023;53.554;9.964;2022-11-20T16:02:11;3.60;99.90
9965;DHT22;5023;53.554;9.964;2022-11-20T16:07:13;3.60;99.90
9965;DHT22;5023;53.554;9.964;2022-11-20T16:12:19;3.60;99.90
9965;DHT22;5023;53.554;9.964;2022-11-20T16:17:39;3.60;99.90
9965;DHT22;5023;53.554;9.964;2022-11-20T16:22:46;3.60;99.90
9965;DHT22;5023;53.554;9.964;2022-11-20T16:27:51;3.50;99.90
9965;DHT22;5023;53.554;9.964;2022-11-20T16:33:02;3.50;99.90
9965;DHT22;5023;53.554;9.964;2022-11-20T16:38:11;3.60;99.90
9965;DHT22;5023;53.554;9.964;2022-11-20T16:43:14;3.50;99.90
9965;DHT22;5023;53.554;9.964;2022-11-20T16:48:18;3.50;99.90
9965;DHT22;5023;53.554;9.964;2022-11-20T16:53:24;3.40;99.90
9965;DHT22;5023;53.554;9.964;2022-11-20T16:58:37;3.50;99.90
9965;DHT22;5023;53.554;9.964;2022-11-20T17:03:44;3.50;99.90
9965;DHT22;5023;53.554;9.964;2022-11-20T17:09:05;3.50;99.90
9965;DHT22;5023;53.554;9.964;2022-11-20T17:14:10;3.50;99.90
9965;DHT22;5023;53.554;9.964;2022-11-20T17:19:19;3.60;99.90
9965;DHT22;5023;53.554;9.964;2022-11-20T17:24:22;3.60;99.90
9965;DHT22;5023;53.554;9.964;2022-11-20T17:29:27;3.60;99.90
9965;DHT22;5023;53.554;9.964;2022-11-20T17:34:30;3.60;99.90
9965;DHT22;5023;53.554;9.964;2022-11-20T17:39:37;3.60;99.90
9965;DHT22;5023;53.554;9.964;2022-11-20T17:44:41;3.50;99.90
9965;DHT22;5023;53.554;9.964;2022-11-20T17:49:50;3.40;99.90
9965;DHT22;5023;53.554;9.964;2022-11-20T17:55:01;3.40;99.90
9965;DHT22;5023;53.554;9.964;2022-11-20T18:00:10;3.40;99.90
9965;DHT22;5023;53.554;9.964;2022-11-20T18:05:25;3.40;99.90
9965;DHT22;5023;53.554;9.964;2022-11-20T18:10:34;3.50;99.90
9965;DHT22;5023;53.554;9.964;2022-11-20T18:15:36;3.50;99.90
9965;DHT22;5023;53.554;9.964;2022-11-20T18:20:40;3.40;99.90
9965;DHT22;5023;53.554;9.964;2022-11-20T18:25:42;3.30;99.90
9965;DHT22;5023;53.554;9.964;2022-11-20T18:30:48;3.00;99.90
9965;DHT22;5023;53.554;9.964;2022-11-20T18:36:12;2.80;99.90
9965;DHT22;5023;53.554;9.964;2022-11-20T18:41:17;2.70;99.90
9965;DHT22;5023;53.554;9.964;2022-11-20T18:46:34;2.40;99.90
9965;DHT22;5023;53.554;9.964;2022-11-20T18:51:38;2.30;99.90
9965;DHT22;5023;53.554;9.964;2022-11-20T18:56:43;2.20;99.90
9965;DHT22;5023;53.554;9.964;2022-11-20T19:01:45;2.10;99.90
9965;DHT22;5023;53.554;9.964;2022-11-20T19:06:53;2.00;99.90
9965;DHT22;5023;53.554;9.964;2022-11-20T19:12:01;2.00;99.90
9965;DHT22;5023;53.554;9.964;2022-11-20T19:17:13;2.00;99.90
9965;DHT22;5023;53.554;9.964;2022-11-20T19:22:23;2.10;99.90
9965;DHT22;5023;53.554;9.964;2022-11-20T19:27:35;2.20;99.90
9965;DHT22;5023;53.554;9.964;2022-11-20T19:32:44;2.30;99.90
9965;DHT22;5023;53.554;9.964;2022-11-20T19:37:54;2.30;99.90
9965;DHT22;5023;53.554;9.964;2022-11-20T19:43:00;2.20;99.90
9965;DHT22;5023;53.554;9.964;2022-11-20T19:48:14;2.20;99.90
9965;DHT22;5023;53.554;9.964;2022-11-20T19:53:18;2.10;99.90
9965;DHT22;5023;53.554;9.964;2022-11-20T19:58:27;2.20;99.90
9965;DHT22;5023;53.554;9.964;2022-11-20T20:03:34;2.10;99.90
9965;DHT22;5023;53.554;9.964;2022-11-20T20:08:40;2.10;99.90
9965;DHT22;5023;53.554;9.964;2022-11-20T20:13:45;2.20;99.90
9965;DHT22;5023;53.554;9.964;2022-11-20T20:18:47;2.20;99.90
9965;DHT22;5023;53.554;9.964;2022-11-20T20:23:52;2.20;99.90
9965;DHT22;5023;53.554;9.964;2022-11-20T20:28:57;2.20;99.90
9965;DHT22;5023;53.554;9.964;2022-11-20T20:34:00;2.20;99.90
9965;DHT22;5023;53.554;9.964;2022-11-20T20:39:04;2.20;99.90
9965;DHT22;5023;53.554;9.964;2022-11-20T20:44:12;2.30;99.90
9965;DHT22;5023;53.554;9.964;2022-11-20T20:49:32;2.20;99.90
9965;DHT22;5023;53.554;9.964;2022-11-20T20:54:39;2.20;99.90
9965;DHT22;5023;53.554;9.964;2022-11-20T20:59:43;2.30;99.90
9965;DHT22;5023;53.554;9.964;2022-11-20T21:04:46;2.30;99.90
9965;DHT22;5023;53.554;9.964;2022-11-20T21:09:54;2.30;99.90
9965;DHT22;5023;53.554;9.964;2022-11-20T21:14:59;2.30;99.90
9965;DHT22;5023;53.554;9.964;2022-11-20T21:20:07;2.30;99.90
9965;DHT22;5023;53.554;9.964;2022-11-20T21:25:52;2.30;99.90
9965;DHT22;5023;53.554;9.964;2022-11-20T21:31:02;2.30;99.90
9965;DHT22;5023;53.554;9.964;2022-11-20T21:36:12;2.20;99.90
9965;DHT22;5023;53.554;9.964;2022-11-20T21:41:18;2.10;99.90
9965;DHT22;5023;53.554;9.964;2022-11-20T21:46:22;2.10;99.90
9965;DHT22;5023;53.554;9.964;2022-11-20T21:51:26;2.10;99.90
9965;DHT22;5023;53.554;9.964;2022-11-20T21:56:33;2.00;99.90
9965;DHT22;5023;53.554;9.964;2022-11-20T22:01:38;2.10;99.90
9965;DHT22;5023;53.554;9.964;2022-11-20T22:06:45;2.00;99.90
9965;DHT22;5023;53.554;9.964;2022-11-20T22:11:49;2.00;99.90
9965;DHT22;5023;53.554;9.964;2022-11-20T22:16:53;2.00;99.90
9965;DHT22;5023;53.554;9.964;2022-11-20T22:21:56;2.00;99.90
9965;DHT22;5023;53.554;9.964;2022-11-20T22:26:59;2.00;99.90
9965;DHT22;5023;53.554;9.964;2022-11-20T22:32:23;2.00;99.90
9965;DHT22;5023;53.554;9.964;2022-11-20T22:37:27;1.90;99.90
9965;DHT22;5023;53.554;9.964;2022-11-20T22:42:31;1.80;99.90
9965;DHT22;5023;53.554;9.964;2022-11-20T22:47:53;1.80;99.90
9965;DHT22;5023;53.554;9.964;2022-11-20T22:52:58;1.70;99.90
9965;DHT22;5023;53.554;9.964;2022-11-20T22:58:02;1.70;99.90
9965;DHT22;5023;53.554;9.964;2022-11-20T23:03:06;1.70;99.90
9965;DHT22;5023;53.554;9.964;2022-11-20T23:08:12;1.60;99.90
9965;DHT22;5023;53.554;9.964;2022-11-20T23:13:18;1.50;99.90
9965;DHT22;5023;53.554;9.964;2022-11-20T23:18:21;1.40;99.90
9965;DHT22;5023;53.554;9.964;2022-11-20T23:23:24;1.20;99.90
9965;DHT22;5023;53.554;9.964;2022-11-20T23:28:29;1.10;99.90
9965;DHT22;5023;53.554;9.964;2022-11-20T23:33:33;1.10;99.90
9965;DHT22;5023;53.554;9.964;2022-11-20T23:38:38;1.00;99.90
9965;DHT22;5023;53.554;9.964;2022-11-20T23:43:42;1.10;99.90
9965;DHT22;5023;53.554;9.964;2022-11-20T23:48:45;1.10;99.90
9965;DHT22;5023;53.554;9.964;2022-11-20T23:53:47;1.10;99.90
9965;DHT22;5023;53.554;9.964;2022-11-20T23:58:52;1.00;99.90
